Time,TemperatureF,DewpointF,PressureIn,WindDirection,WindDirectionDegrees,WindSpeedMPH,WindSpeedGustMPH,Humidity,HourlyPrecipIn,Conditions,Clouds,dailyrainin,SoftwareType,DateUTC
2013-04-25 00:14:00,27.7,25.0,29.99,WSW,255,0.0,0.0,89,0.00,,,0.00,weatherlink.com 1.10,2013-04-25 04:14:00,
2013-04-25 00:29:00,27.4,25.0,29.99,WSW,248,0.0,0.0,91,0.00,,,0.00,weatherlink.com 1.10,2013-04-25 04:29:00,
2013-04-25 00:44:00,26.5,24.0,29.99,WSW,248,0.0,0.0,91,0.00,,,0.00,weatherlink.com 1.10,2013-04-25 04:44:00,
2013-04-25 00:59:00,26.4,24.0,29.99,WSW,240,0.0,0.0,92,0.00,,,0.00,weatherlink.com 1.10,2013-04-25 04:59:00,
2013-04-25 01:14:00,25.9,24.0,29.99,WSW,241,0.0,0.0,92,0.00,,,0.00,weatherlink.com 1.10,2013-04-25 05:14:00,
2013-04-25 01:29:00,26.2,25.0,29.98,WSW,240,0.0,0.0,93,0.00,,,0.00,weatherlink.com 1.10,2013-04-25 05:29:00,
2013-04-25 01:44:00,26.3,25.0,29.98,WSW,241,0.0,0.0,93,0.00,,,0.00,weatherlink.com 1.10,2013-04-25 05:44:00,
2013-04-25 01:59:00,25.9,24.0,29.98,WSW,240,0.0,0.0,93,0.00,,,0.00,weatherlink.com 1.10,2013-04-25 05:59:00,
2013-04-25 02:14:00,25.0,23.0,29.98,WSW,240,0.0,0.0,93,0.00,,,0.00,weatherlink.com 1.10,2013-04-25 06:14:00,
2013-04-25 02:29:00,25.0,23.0,29.97,WSW,241,0.0,0.0,93,0.00,,,0.00,weatherlink.com 1.10,2013-04-25 06:29:00,
2013-04-25 02:44:00,25.5,24.0,29.97,WSW,240,0.0,0.0,94,0.00,,,0.00,weatherlink.com 1.10,2013-04-25 06:44:00,
2013-04-25 02:59:00,27.0,26.0,29.96,SE,129,0.0,1.0,94,0.00,,,0.00,weatherlink.com 1.10,2013-04-25 06:59:00,
2013-04-25 03:15:00,28.1,26.0,29.96,ESE,113,0.0,1.0,93,0.00,,,0.00,weatherlink.com 1.10,2013-04-25 07:15:00,
2013-04-25 03:30:00,27.7,26.0,29.96,SE,133,0.0,1.0,92,0.00,,,0.00,weatherlink.com 1.10,2013-04-25 07:30:00,
2013-04-25 03:45:00,28.3,27.0,29.95,SE,136,1.0,2.0,93,0.00,,,0.00,weatherlink.com 1.10,2013-04-25 07:45:00,
2013-04-25 04:00:00,29.9,28.0,29.95,SE,142,0.0,2.0,92,0.00,,,0.00,weatherlink.com 1.10,2013-04-25 08:00:00,
2013-04-25 04:15:00,30.6,28.0,29.95,SE,125,0.0,2.0,91,0.00,,,0.00,weatherlink.com 1.10,2013-04-25 08:15:00,
2013-04-25 04:30:00,31.3,28.0,29.95,SE,125,0.0,2.0,88,0.00,,,0.00,weatherlink.com 1.10,2013-04-25 08:30:00,
2013-04-25 04:45:00,31.3,28.0,29.94,East,96,1.0,2.0,86,0.00,,,0.00,weatherlink.com 1.10,2013-04-25 08:45:00,
2013-04-25 05:00:00,31.5,28.0,29.94,SE,129,0.0,2.0,85,0.00,,,0.00,weatherlink.com 1.10,2013-04-25 09:00:00,
2013-04-25 05:15:00,31.4,28.0,29.94,SE,134,0.0,1.0,86,0.00,,,0.00,weatherlink.com 1.10,2013-04-25 09:15:00,
2013-04-25 05:30:00,31.2,28.0,29.93,SE,125,0.0,1.0,87,0.00,,,0.00,weatherlink.com 1.10,2013-04-25 09:30:00,
2013-04-25 05:45:00,31.4,27.0,29.93,East,86,0.0,1.0,85,0.00,,,0.00,weatherlink.com 1.10,2013-04-25 09:45:00,
2013-04-25 06:00:00,30.8,27.0,29.93,ENE,64,2.0,2.0,87,0.00,,,0.00,weatherlink.com 1.10,2013-04-25 10:00:00,
2013-04-25 06:15:00,32.3,28.0,29.92,East,97,1.0,4.0,83,0.00,,,0.00,weatherlink.com 1.10,2013-04-25 10:15:00,
2013-04-25 06:30:00,32.9,28.0,29.93,SE,138,0.0,2.0,81,0.00,,,0.00,weatherlink.com 1.10,2013-04-25 10:30:00,
2013-04-25 06:45:00,33.1,28.0,29.95,SW,219,3.0,6.0,82,0.00,,,0.00,weatherlink.com 1.10,2013-04-25 10:45:00,
2013-04-25 07:00:00,33.6,29.0,29.95,SSE,152,2.0,5.0,83,0.00,,,0.00,weatherlink.com 1.10,2013-04-25 11:00:00,
2013-04-25 07:15:00,33.7,29.0,29.94,SW,215,0.0,0.0,83,0.00,,,0.00,weatherlink.com 1.10,2013-04-25 11:15:00,
2013-04-25 07:30:00,33.6,30.0,29.94,SE,146,0.0,1.0,85,0.00,,,0.00,weatherlink.com 1.10,2013-04-25 11:30:00,
2013-04-25 07:45:00,33.8,30.0,29.93,ENE,76,1.0,2.0,87,0.00,,,0.00,weatherlink.com 1.10,2013-04-25 11:45:00,
2013-04-25 08:00:00,34.0,31.0,29.94,East,81,1.0,2.0,88,0.00,,,0.00,weatherlink.com 1.10,2013-04-25 12:00:00,
2013-04-25 08:15:00,34.1,30.0,29.93,NE,43,1.0,4.0,86,0.00,,,0.00,weatherlink.com 1.10,2013-04-25 12:15:00,
2013-04-25 08:30:00,34.3,31.0,29.93,NE,53,2.0,4.0,86,0.00,,,0.00,weatherlink.com 1.10,2013-04-25 12:30:00,
2013-04-25 08:45:00,34.9,31.0,29.93,East,84,3.0,5.0,85,0.00,,,0.00,weatherlink.com 1.10,2013-04-25 12:45:00,
2013-04-25 09:00:00,34.2,31.0,29.93,East,92,4.0,8.0,89,0.00,,,0.00,weatherlink.com 1.10,2013-04-25 13:00:00,
2013-04-25 09:15:00,33.9,32.0,29.93,East,84,4.0,6.0,91,0.00,,,0.00,weatherlink.com 1.10,2013-04-25 13:15:00,
2013-04-25 09:30:00,34.0,32.0,29.93,East,101,3.0,6.0,92,0.00,,,0.00,weatherlink.com 1.10,2013-04-25 13:30:00,
2013-04-25 09:45:00,34.3,32.0,29.92,NE,49,3.0,6.0,92,0.00,,,0.00,weatherlink.com 1.10,2013-04-25 13:45:00,
2013-04-25 10:00:00,35.4,33.0,29.92,East,89,2.0,4.0,92,0.00,,,0.00,weatherlink.com 1.10,2013-04-25 14:00:00,
2013-04-25 10:15:00,38.6,36.0,29.92,ESE,108,7.0,12.0,89,0.00,,,0.00,weatherlink.com 1.10,2013-04-25 14:15:00,
2013-04-25 10:30:00,39.6,36.0,29.91,SE,136,9.0,20.0,86,0.00,,,0.00,weatherlink.com 1.10,2013-04-25 14:30:00,
2013-04-25 10:45:00,39.5,36.0,29.91,SE,140,3.0,13.0,86,0.00,,,0.00,weatherlink.com 1.10,2013-04-25 14:45:00,
2013-04-25 11:00:00,38.8,35.0,29.91,SSE,162,3.0,11.0,87,0.00,,,0.00,weatherlink.com 1.10,2013-04-25 15:00:00,
2013-04-25 11:15:00,38.9,35.0,29.91,East,96,6.0,10.0,87,0.01,,,0.01,weatherlink.com 1.10,2013-04-25 15:15:00,
2013-04-25 11:30:00,38.7,35.0,29.91,ESE,110,3.0,13.0,87,0.01,,,0.01,weatherlink.com 1.10,2013-04-25 15:30:00,
2013-04-25 11:45:00,38.0,34.0,29.92,SSE,148,2.0,12.0,86,0.01,,,0.01,weatherlink.com 1.10,2013-04-25 15:45:00,
2013-04-25 12:00:00,37.0,34.0,29.92,ESE,122,1.0,13.0,89,0.01,,,0.01,weatherlink.com 1.10,2013-04-25 16:00:00,
2013-04-25 12:15:00,36.1,34.0,29.92,SSW,201,6.0,15.0,90,0.00,,,0.01,weatherlink.com 1.10,2013-04-25 16:15:00,
2013-04-25 12:31:00,36.0,33.0,29.92,West,271,5.0,17.0,90,0.00,,,0.01,weatherlink.com 1.10,2013-04-25 16:31:00,
2013-04-25 12:46:00,36.1,34.0,29.92,South,190,4.0,17.0,90,0.00,,,0.01,weatherlink.com 1.10,2013-04-25 16:46:00,
2013-04-25 13:01:00,37.5,34.0,29.92,SSE,160,10.0,16.0,87,0.00,,,0.01,weatherlink.com 1.10,2013-04-25 17:01:00,
2013-04-25 13:16:00,37.6,34.0,29.93,SW,226,8.0,15.0,86,0.00,,,0.01,weatherlink.com 1.10,2013-04-25 17:16:00,
2013-04-25 13:31:00,38.0,34.0,29.93,SW,214,4.0,16.0,86,0.00,,,0.01,weatherlink.com 1.10,2013-04-25 17:31:00,
2013-04-25 13:46:00,38.7,35.0,29.93,NW,308,9.0,19.0,85,0.00,,,0.01,weatherlink.com 1.10,2013-04-25 17:46:00,
2013-04-25 14:01:00,38.4,35.0,29.95,SSW,202,7.0,16.0,86,0.00,,,0.01,weatherlink.com 1.10,2013-04-25 18:01:00,
2013-04-25 14:16:00,36.3,34.0,29.96,SW,221,4.0,15.0,90,0.01,,,0.02,weatherlink.com 1.10,2013-04-25 18:16:00,
2013-04-25 14:31:00,36.5,35.0,29.96,SW,232,5.0,11.0,93,0.02,,,0.03,weatherlink.com 1.10,2013-04-25 18:31:00,
2013-04-25 14:46:00,37.1,35.0,29.97,West,273,5.0,16.0,92,0.02,,,0.03,weatherlink.com 1.10,2013-04-25 18:46:00,
2013-04-25 15:01:00,36.8,35.0,29.98,West,281,4.0,13.0,92,0.02,,,0.03,weatherlink.com 1.10,2013-04-25 19:01:00,
2013-04-25 15:16:00,37.1,35.0,29.99,West,274,5.0,23.0,92,0.01,,,0.03,weatherlink.com 1.10,2013-04-25 19:16:00,
2013-04-25 15:31:00,36.7,35.0,30.00,West,273,5.0,15.0,92,0.00,,,0.03,weatherlink.com 1.10,2013-04-25 19:31:00,
2013-04-25 15:46:00,36.0,34.0,30.02,WSW,245,15.0,22.0,91,0.01,,,0.04,weatherlink.com 1.10,2013-04-25 19:46:00,
2013-04-25 16:01:00,35.9,33.0,30.03,West,269,5.0,18.0,90,0.01,,,0.04,weatherlink.com 1.10,2013-04-25 20:01:00,
2013-04-25 16:16:00,35.9,33.0,30.04,SW,221,7.0,15.0,89,0.01,,,0.04,weatherlink.com 1.10,2013-04-25 20:16:00,
2013-04-25 16:31:00,35.6,33.0,30.06,WSW,246,8.0,23.0,89,0.01,,,0.04,weatherlink.com 1.10,2013-04-25 20:31:00,
2013-04-25 16:46:00,35.7,33.0,30.06,West,276,10.0,18.0,88,0.00,,,0.04,weatherlink.com 1.10,2013-04-25 20:46:00,
2013-04-25 17:01:00,36.1,33.0,30.08,West,265,6.0,19.0,87,0.00,,,0.04,weatherlink.com 1.10,2013-04-25 21:01:00,
2013-04-25 17:16:00,36.0,32.0,30.09,SW,232,9.0,15.0,86,0.00,,,0.04,weatherlink.com 1.10,2013-04-25 21:16:00,
2013-04-25 17:31:00,37.1,33.0,30.09,West,271,11.0,17.0,85,0.00,,,0.04,weatherlink.com 1.10,2013-04-25 21:31:00,
2013-04-25 17:46:00,37.6,32.0,30.11,WSW,252,7.0,19.0,81,0.00,,,0.04,weatherlink.com 1.10,2013-04-25 21:46:00,
2013-04-25 18:01:00,38.6,33.0,30.11,WSW,252,12.0,17.0,79,0.00,,,0.04,weatherlink.com 1.10,2013-04-25 22:01:00,
2013-04-25 18:16:00,39.6,33.0,30.12,WSW,239,13.0,13.0,76,0.00,,,0.04,weatherlink.com 1.10,2013-04-25 22:16:00,
2013-04-25 18:31:00,40.4,32.0,30.13,NW,319,4.0,20.0,72,0.00,,,0.04,weatherlink.com 1.10,2013-04-25 22:31:00,
2013-04-25 18:46:00,40.9,31.0,30.13,WNW,283,9.0,18.0,69,0.00,,,0.04,weatherlink.com 1.10,2013-04-25 22:46:00,
2013-04-25 19:01:00,41.0,30.0,30.14,NNW,336,3.0,17.0,66,0.00,,,0.04,weatherlink.com 1.10,2013-04-25 23:01:00,
2013-04-25 19:16:00,41.3,31.0,30.14,West,271,4.0,12.0,66,0.00,,,0.04,weatherlink.com 1.10,2013-04-25 23:16:00,
2013-04-25 19:31:00,41.1,29.0,30.16,North,5,5.0,12.0,62,0.00,,,0.04,weatherlink.com 1.10,2013-04-25 23:31:00,
2013-04-25 19:46:00,40.8,29.0,30.16,West,265,10.0,12.0,62,0.00,,,0.04,weatherlink.com 1.10,2013-04-25 23:46:00,
2013-04-25 20:01:00,40.4,28.0,30.17,NW,323,1.0,7.0,62,0.00,,,0.04,weatherlink.com 1.10,2013-04-26 00:01:00,
2013-04-25 20:17:00,39.3,27.0,30.18,SW,217,1.0,8.0,62,0.00,,,0.04,weatherlink.com 1.10,2013-04-26 00:17:00,
2013-04-25 20:32:00,38.1,27.0,30.18,West,281,2.0,4.0,64,0.00,,,0.04,weatherlink.com 1.10,2013-04-26 00:32:00,
2013-04-25 20:47:00,37.4,27.0,30.19,West,259,0.0,5.0,66,0.00,,,0.04,weatherlink.com 1.10,2013-04-26 00:47:00,
2013-04-25 21:02:00,34.8,27.0,30.20,WSW,252,0.0,0.0,73,0.00,,,0.04,weatherlink.com 1.10,2013-04-26 01:02:00,
2013-04-25 21:17:00,32.5,26.0,30.21,WSW,252,0.0,0.0,77,0.00,,,0.04,weatherlink.com 1.10,2013-04-26 01:17:00,
2013-04-25 21:32:00,30.4,26.0,30.22,WSW,253,0.0,0.0,83,0.00,,,0.04,weatherlink.com 1.10,2013-04-26 01:32:00,
2013-04-25 21:47:00,29.5,26.0,30.22,WSW,253,0.0,0.0,85,0.00,,,0.04,weatherlink.com 1.10,2013-04-26 01:47:00,
2013-04-25 22:02:00,29.2,26.0,30.23,WSW,253,0.0,0.0,87,0.00,,,0.04,weatherlink.com 1.10,2013-04-26 02:02:00,
2013-04-25 22:17:00,28.8,25.0,30.23,WSW,253,0.0,0.0,87,0.00,,,0.04,weatherlink.com 1.10,2013-04-26 02:17:00,
2013-04-25 22:32:00,28.0,25.0,30.25,SW,221,0.0,1.0,89,0.00,,,0.04,weatherlink.com 1.10,2013-04-26 02:32:00,
2013-04-25 22:47:00,27.5,25.0,30.25,SW,221,0.0,0.0,90,0.00,,,0.04,weatherlink.com 1.10,2013-04-26 02:47:00,
2013-04-25 23:02:00,27.3,25.0,30.25,SW,221,0.0,0.0,91,0.00,,,0.04,weatherlink.com 1.10,2013-04-26 03:02:00,
2013-04-25 23:17:00,27.0,25.0,30.25,SW,221,0.0,0.0,91,0.00,,,0.04,weatherlink.com 1.10,2013-04-26 03:17:00,
2013-04-25 23:32:00,26.9,25.0,30.26,SW,221,0.0,0.0,92,0.00,,,0.04,weatherlink.com 1.10,2013-04-26 03:32:00,
2013-04-25 23:47:00,26.8,25.0,30.26,SW,221,0.0,0.0,92,0.00,,,0.04,weatherlink.com 1.10,2013-04-26 03:47:00,